Gaithersburg, MD (20877)

2:00 AM EDT on August 29, 2014 (GMT -0400)
Muddy Branch Park | Change Station
CLOSE
Current Station
Personal Weather Station
Location: Gaithersburg, MD
Elevation: 394 ft
Nearby Weather Stations

Elev 394 ft 39.12 °N, 77.21 °W | Updated 3 seconds ago

Clear
Clear
62.4 °F
Feels Like 62.4 °F
N
0.0
Wind Variable Wind from North
Gusts 0.0 mph

Today
High -- | Low -- °F
--% Chance of Precip.
Yesterday
High -- | Low -- °F
Precip. -- in
6:34 AM 7:43 PM
Waxing Crescent, 12% visible
Pressure 30.16 in
Visibility 10.0 miles
Clouds Clear
Dew Point 57 °F
Humidity 82%
Rainfall 0.00 in
Snow Depth Not available.
UV 0 out of 12
Pollen 10.20 out of 12
Air Quality Not available.
Flu Activity Not available.
METAR KGAI 290555Z AUTO 02003KT 10SM CLR 16/11 A3016 RMK AO1 10210 20140 52010

More Conditions Fewer Conditions

Pressure 30.16 in
Visibility 10.0 miles
Clouds Clear
Dew Point 57 °F
Humidity 82%
Rainfall 0.00 in
Snow Depth Not available.
UV 0 out of 12
Pollen 10.20 out of 12
Air Quality Not available.
Flu Activity Not available.
METAR KGAI 290555Z AUTO 02003KT 10SM CLR 16/11 A3016 RMK AO1 10210 20140 52010

More Conditions Fewer Conditions

10-Day Weather Forecast

Almanac

Astronomy

Aug. 29, 2014 Rise Set
Actual Time 6:34 AM EDT 7:43 PM EDT
Civil Twilight 6:07 AM EDT 8:11 PM EDT
Nautical Twilight 5:34 AM EDT 8:44 PM EDT
Astronomical Twilight 4:59 AM EDT 9:18 PM EDT
Moon 10:20 AM EDT 9:42 PM EDT
Length of Visible Light 14h 04m
Length of Day
13h 09m
Tomorrow will be 2m 26s shorter.
Waxing Crescent, 12% of the Moon is Illuminated
Today
Waxing Crescent
Sep 2
First Quarter
Sep 8
Full
Sep 15
Last Quarter
Sep 24
New

Today's Extremes

State Highs State Lows

Community

WunderPhotos

Upload Photos

1,748,197 photos uploaded!

Nearby

Snow Depth

Station Depth Elevation
No new snow has been reported.

Earthquake Activity

City Distance Mag. Time & Date
No recent earthquake activity has been reported nearby.
Minimum magnitude displayed is 2.5.

Coastal Water Temperatures

Place Temperature
Washington, DC 79.0 °F
Baltimore, MD 81.0 °F
Solomons Island, MD 80.1 °F

Nearby Weather Stations